Terminal Aerodrome Forecast
Issued by NWS Sioux Falls, SD

Home | Current Version | Previous Version | Graphics & Text | Print | Product List | Glossary On
Versions: 1 2 3 4 5 6 7 8 9 10 11 12 13 14 15 16 17 18 19 20 21 22 23 24 25 26 27 28 29 30
000
FTUS43 KFSD 220907 AAA
TAFSUX
TAF AMD
KSUX 220907Z 2209/2306 10004KT 3SM -SN OVC070
      TEMPO 2209/2211 1SM -SN BKN020
     FM221100 11004KT P6SM VCSH OVC045
     FM221300 09005KT P6SM -SN OVC045
     FM221700 13008KT 3SM -SN OVC015
     FM221900 12007KT 3SM -FZDZ OVC015
     FM222100 12007KT 1SM -SN OVC010
     FM230300 VRB03KT P6SM OVC008=

USA.gov is the U.S. government's official web portal to all federal, state and local government web resources and services.